Spa/La Sauveniere, Belgium
Current Conditions -  °F | °C
As of 11:25 AM on Tuesday 27 Jan 2015 (Local Time) from EBLB Reporting Station
Broken Clouds Broken Clouds  
Wind Chill: 26°   Ceiling: 800
Heat Index: 34°   Visibility: 6mi
Dew Point: 32°   Wind: 10mph
Humidity: 93%   Direction: 310°NW
Pressure: 30.18"   Gusts: NA
Location:  50.49°N, 5.89°E
Report Text: EBLB 271025Z AUTO 31009KT 9999 FEW003/// SCT005/// BKN008/// 01/00 Q1022 YLO
Loading
Personal Weather Stations






























Interactive Weather Map New forecast layout! Learn more

10-Day Weather Forecast

Advertisements
Track Severe Weather on mobile